Time;durP1;ratioP1;P1;durP2;ratioP2;P2;SDS_P1;SDS_P2;PMS_P1;PMS_P2;Temp;Humidity;BMP_temperature;BMP_pressure;BME280_temperature;BME280_humidity;BME280_pressure;Samples;Min_cycle;Max_cycle;Signal;HPM_P1;HPM_P2
2022/06/11 00:10:07;;;;;;;12.93;7.65;;;;;;;15.72;100.00;100929.27;712904;1180;116286;-74
2022/06/11 00:25:10;;;;;;;12.43;6.80;;;;;;;15.44;100.00;100924.05;713265;1179;116088;-74
2022/06/11 00:40:16;;;;;;;6.25;5.55;;;;;;;15.27;100.00;100918.62;713119;1179;115124;-73
2022/06/11 00:55:28;;;;;;;10.98;6.30;;;;;;;15.84;100.00;100922.77;712618;1179;115089;-74
2022/06/11 01:10:32;;;;;;;7.25;5.80;;;;;;;15.09;100.00;100929.16;712474;1177;116407;-73
2022/06/11 01:25:54;;;;;;;9.08;5.23;;;;;;;14.84;100.00;100928.06;712526;1177;115777;-74
2022/06/11 01:41:24;;;;;;;6.73;5.18;;;;;;;14.65;100.00;100944.86;712664;1177;114736;-74
2022/06/11 01:56:56;;;;;;;10.83;5.30;;;;;;;14.47;100.00;100948.20;712673;1180;115174;-74
2022/06/11 02:12:11;;;;;;;7.33;4.90;;;;;;;14.25;100.00;100959.11;712648;1177;116326;-73
2022/06/11 02:27:18;;;;;;;6.75;5.10;;;;;;;13.98;100.00;100958.88;712996;1180;114567;-73
2022/06/11 02:42:23;;;;;;;9.33;5.37;;;;;;;13.90;100.00;100969.31;712485;1180;114623;-74
2022/06/11 02:57:29;;;;;;;5.63;4.68;;;;;;;13.89;100.00;100988.74;712697;1178;115447;-74
2022/06/11 03:12:31;;;;;;;6.53;4.73;;;;;;;13.61;100.00;100995.69;712710;1179;115934;-75
2022/06/11 03:27:36;;;;;;;6.15;4.68;;;;;;;13.72;100.00;101000.81;712654;1170;115966;-74
2022/06/11 03:42:38;;;;;;;6.53;4.70;;;;;;;13.81;100.00;101007.89;712797;1177;115804;-73
2022/06/11 03:57:41;;;;;;;8.07;3.93;;;;;;;14.32;100.00;100994.53;712610;1179;115702;-73
2022/06/11 04:12:43;;;;;;;6.23;4.80;;;;;;;14.95;100.00;100996.56;712793;1177;115490;-73
2022/06/11 04:27:45;;;;;;;11.55;6.30;;;;;;;15.38;100.00;101006.62;713126;1178;115984;-74
2022/06/11 04:42:48;;;;;;;10.07;6.27;;;;;;;15.66;100.00;101010.02;713502;1178;115390;-74
2022/06/11 04:57:50;;;;;;;12.83;7.45;;;;;;;16.19;100.00;101018.10;713659;1178;115841;-74
2022/06/11 05:12:52;;;;;;;7.97;5.63;;;;;;;16.78;100.00;101021.77;712932;1180;114844;-75
2022/06/11 05:27:55;;;;;;;8.30;5.60;;;;;;;17.17;100.00;101015.19;712645;1178;114480;-76
2022/06/11 05:42:57;;;;;;;5.25;4.70;;;;;;;17.79;100.00;101024.60;712895;1177;115614;-74
2022/06/11 05:58:03;;;;;;;7.65;5.38;;;;;;;18.37;100.00;101029.90;712932;1178;116079;-74
2022/06/11 06:13:45;;;;;;;8.30;4.20;;;;;;;18.95;100.00;101036.77;713038;1177;116073;-74
2022/06/11 06:28:28;;;;;;;10.65;5.25;;;;;;;19.40;98.02;101039.70;712810;1180;115665;-74
2022/06/11 06:43:31;;;;;;;5.83;3.15;;;;;;;19.88;95.61;101046.75;712883;1178;115315;-75
2022/06/11 06:58:34;;;;;;;7.57;4.83;;;;;;;20.30;92.32;101050.72;712963;1180;115504;-75
2022/06/11 07:13:37;;;;;;;5.35;2.75;;;;;;;20.83;90.20;101047.21;713910;1179;115542;-71
2022/06/11 07:28:58;;;;;;;5.80;2.45;;;;;;;21.25;87.56;101054.51;713078;1179;114879;-71
2022/06/11 07:44:01;;;;;;;5.10;2.77;;;;;;;21.85;85.17;101064.20;712716;1177;114948;-71
2022/06/11 07:59:05;;;;;;;3.77;2.27;;;;;;;23.18;83.23;101069.67;713221;1178;114451;-70
2022/06/11 08:14:09;;;;;;;5.20;1.70;;;;;;;23.66;79.24;101068.78;712777;1177;115956;-70
2022/06/11 08:29:11;;;;;;;4.63;1.67;;;;;;;23.68;76.47;101063.25;712418;1178;115211;-70
2022/06/11 08:44:15;;;;;;;3.45;1.50;;;;;;;24.55;75.88;101058.72;714866;1180;115815;-69
2022/06/11 08:59:33;;;;;;;4.17;1.47;;;;;;;25.89;73.95;101066.22;712696;1177;115655;-70
2022/06/11 09:14:51;;;;;;;3.57;1.50;;;;;;;25.83;70.85;101066.27;713219;1177;115936;-71
2022/06/11 09:30:08;;;;;;;3.97;1.40;;;;;;;26.10;68.92;101064.20;713388;1177;115842;-69
2022/06/11 09:45:17;;;;;;;1.68;1.15;;;;;;;26.23;69.53;101047.95;713949;1180;115759;-69
2022/06/11 10:00:36;;;;;;;4.37;1.70;;;;;;;27.45;68.09;101036.66;712813;1179;115898;-68
2022/06/11 10:15:42;;;;;;;2.70;1.40;;;;;;;27.13;65.83;101034.17;713293;1179;115788;-70
2022/06/11 10:30:55;;;;;;;3.03;1.23;;;;;;;28.29;64.80;101014.97;712564;1178;115995;-72
2022/06/11 10:45:57;;;;;;;4.80;1.65;;;;;;;28.64;64.47;101022.20;712668;1179;115127;-78
2022/06/11 11:01:12;;;;;;;2.57;1.40;;;;;;;29.75;65.61;101011.28;712670;1180;114878;-78
2022/06/11 11:16:22;;;;;;;3.20;1.60;;;;;;;30.07;61.58;101000.73;713105;1179;114725;-78
2022/06/11 11:31:31;;;;;;;2.20;1.10;;;;;;;29.87;63.13;100990.44;714178;1177;115986;-78
2022/06/11 11:46:35;;;;;;;2.85;1.35;;;;;;;30.19;60.47;100987.09;714268;1179;114361;-78
2022/06/11 12:01:38;;;;;;;2.63;1.10;;;;;;;29.48;60.68;100985.72;712834;1178;115046;-78
2022/06/11 12:16:54;;;;;;;3.10;1.55;;;;;;;30.93;56.97;100975.01;713100;1180;114795;-75
2022/06/11 12:32:00;;;;;;;2.40;1.20;;;;;;;29.97;57.24;100973.53;712788;1177;114597;-75
2022/06/11 12:47:15;;;;;;;1.70;1.10;;;;;;;30.92;57.28;100956.31;712615;1179;115379;-76
2022/06/11 13:02:25;;;;;;;2.25;1.20;;;;;;;31.39;55.19;100952.17;712889;1179;114450;-76
2022/06/11 13:17:39;;;;;;;4.53;2.20;;;;;;;32.25;54.81;100953.02;712667;1179;114549;-76
2022/06/11 13:33:33;;;;;;;2.55;1.85;;;;;;;31.31;54.70;100940.72;712531;1177;114407;-79
2022/06/11 13:49:14;;;;;;;2.80;1.80;;;;;;;32.75;54.64;100935.28;712919;1178;115710;-76
2022/06/11 14:04:36;;;;;;;3.23;1.28;;;;;;;31.83;53.51;100922.95;712785;1180;115186;-80
2022/06/11 14:19:40;;;;;;;3.20;1.43;;;;;;;31.64;52.08;100906.28;712786;1179;115451;-77
2022/06/11 14:34:59;;;;;;;6.98;4.25;;;;;;;32.11;52.38;100895.66;715053;1180;115865;-77
2022/06/11 14:50:01;;;;;;;5.00;2.25;;;;;;;31.84;52.17;100875.75;713834;1180;115898;-77
2022/06/11 15:05:20;;;;;;;1.70;1.03;;;;;;;31.69;51.64;100873.78;712530;1177;115860;-78
2022/06/11 15:20:33;;;;;;;7.45;6.28;;;;;;;31.05;51.81;100866.54;712562;1177;115483;-78
2022/06/11 15:35:52;;;;;;;5.43;1.90;;;;;;;30.18;52.62;100859.16;712893;1180;115786;-77
2022/06/11 15:51:15;;;;;;;3.90;1.50;;;;;;;30.10;53.26;100861.47;712669;1180;116162;-77
2022/06/11 16:06:25;;;;;;;4.00;1.85;;;;;;;29.70;54.21;100845.25;712587;1177;115808;-78
2022/06/11 16:21:28;;;;;;;4.45;2.05;;;;;;;29.33;54.41;100851.22;713876;1180;115077;-78
2022/06/11 16:36:41;;;;;;;4.90;2.35;;;;;;;29.03;54.85;100835.32;712552;1179;115251;-78
2022/06/11 17:07:14;;;;;;;16.25;10.20;;;;;;;29.19;55.59;100836.38;712834;1180;114838;-77
2022/06/11 17:22:23;;;;;;;4.93;2.30;;;;;;;29.33;54.93;100815.30;712759;1178;116021;-77
2022/06/11 17:37:32;;;;;;;3.73;1.80;;;;;;;29.01;54.96;100811.27;713343;1177;115675;-77
2022/06/11 17:52:41;;;;;;;3.33;1.70;;;;;;;28.27;56.08;100808.59;713203;1180;114221;-80
2022/06/11 18:07:44;;;;;;;18.60;16.60;;;;;;;26.66;58.73;100809.55;712862;1177;115302;-81
2022/06/11 18:38:09;;;;;;;9.07;4.77;;;;;;;25.67;63.16;100826.67;714576;1179;115786;-76
2022/06/11 18:53:12;;;;;;;13.75;8.45;;;;;;;25.00;65.55;100840.64;713343;1180;114331;-76
2022/06/11 19:08:15;;;;;;;8.40;6.13;;;;;;;24.93;67.54;100850.61;713352;1177;114683;-76
2022/06/11 19:23:19;;;;;;;5.93;4.70;;;;;;;24.63;69.03;100845.83;713648;1179;114923;-76
2022/06/11 19:38:24;;;;;;;12.85;5.25;;;;;;;23.54;71.61;100854.35;713114;1177;114503;-79
2022/06/11 19:53:30;;;;;;;9.55;4.50;;;;;;;22.89;73.89;100846.08;712972;1178;115925;-77
2022/06/11 20:08:35;;;;;;;11.65;5.85;;;;;;;22.63;74.06;100850.33;713935;1178;114757;-78
2022/06/11 20:23:38;;;;;;;11.88;4.80;;;;;;;22.28;75.37;100863.75;713963;1177;115795;-77
2022/06/11 20:38:42;;;;;;;7.20;3.83;;;;;;;21.90;76.48;100866.84;713358;1177;114427;-79
2022/06/11 20:53:47;;;;;;;5.73;3.07;;;;;;;21.83;77.25;100872.14;713905;1177;115673;-78
2022/06/11 21:09:51;;;;;;;5.03;2.63;;;;;;;21.68;77.02;100872.22;713136;1180;115818;-78
2022/06/11 21:24:30;;;;;;;3.68;2.58;;;;;;;22.48;73.35;100871.06;714991;1177;115603;-78
2022/06/11 21:39:32;;;;;;;5.13;3.00;;;;;;;22.35;72.62;100871.80;712752;1179;115763;-77
2022/06/11 21:54:35;;;;;;;38.48;23.78;;;;;;;22.06;72.85;100871.03;712552;1177;115428;-78
2022/06/11 22:09:39;;;;;;;11.25;6.55;;;;;;;21.81;74.30;100862.67;712630;1177;114732;-77
2022/06/11 22:24:49;;;;;;;8.00;4.90;;;;;;;21.63;74.90;100865.82;713089;1180;115326;-78
2022/06/11 22:39:56;;;;;;;15.87;7.80;;;;;;;21.24;75.98;100870.62;712724;1177;114486;-76
2022/06/11 22:54:58;;;;;;;12.25;6.80;;;;;;;21.00;77.23;100863.84;712363;1177;115956;-76
2022/06/11 23:10:04;;;;;;;14.88;7.35;;;;;;;20.78;77.47;100861.14;712562;1179;115079;-78
2022/06/11 23:25:09;;;;;;;9.80;6.30;;;;;;;20.74;79.25;100850.02;712833;1179;116174;-78
2022/06/11 23:40:12;;;;;;;8.68;5.98;;;;;;;20.70;79.93;100830.09;713211;1177;115099;-77
2022/06/11 23:55:15;;;;;;;7.48;4.43;;;;;;;20.89;79.42;100819.81;713902;1179;115766;-77
